createdAt,value
2023-01-26T00:02:23.861Z,19.90
2023-01-26T00:04:52.268Z,17.47
2023-01-26T00:07:22.556Z,19.23
2023-01-26T00:09:50.965Z,19.00
2023-01-26T00:12:19.289Z,19.30
2023-01-26T00:14:53.577Z,20.93
2023-01-26T00:17:29.550Z,25.63
2023-01-26T00:19:59.556Z,19.40
2023-01-26T00:22:28.882Z,19.73
2023-01-26T00:24:57.497Z,19.57
2023-01-26T00:27:25.874Z,21.93
2023-01-26T00:29:54.331Z,21.00
2023-01-26T00:32:24.305Z,20.27
2023-01-26T00:34:52.719Z,22.33
2023-01-26T00:37:22.341Z,23.07
2023-01-26T00:39:52.353Z,21.73
2023-01-26T00:42:21.891Z,20.93
2023-01-26T00:44:50.211Z,20.07
2023-01-26T00:47:19.660Z,23.00
2023-01-26T00:49:49.381Z,17.90
2023-01-26T00:52:17.720Z,19.13
2023-01-26T00:54:46.084Z,18.70
2023-01-26T00:57:16.182Z,17.47
2023-01-26T00:59:44.530Z,17.77
2023-01-26T01:02:13.479Z,16.87
2023-01-26T01:04:41.931Z,15.83
2023-01-26T01:07:11.635Z,16.07
2023-01-26T01:09:40.056Z,18.27
2023-01-26T01:12:08.884Z,15.90
2023-01-26T01:14:37.355Z,15.10
2023-01-26T01:17:05.804Z,17.07
2023-01-26T01:19:34.254Z,14.77
2023-01-26T01:22:02.647Z,13.77
2023-01-26T01:24:34.503Z,13.33
2023-01-26T01:27:02.929Z,14.80
2023-01-26T01:29:31.477Z,16.47
2023-01-26T01:32:00.183Z,14.10
2023-01-26T01:34:29.352Z,15.77
2023-01-26T01:36:57.753Z,15.07
2023-01-26T01:39:26.128Z,13.67
2023-01-26T01:41:55.845Z,14.70
2023-01-26T01:44:26.725Z,18.47
2023-01-26T01:46:58.586Z,16.30
2023-01-26T01:49:30.933Z,23.07
2023-01-26T01:52:05.836Z,17.93
2023-01-26T01:54:39.233Z,16.70
2023-01-26T01:57:15.645Z,19.10
2023-01-26T01:59:47.643Z,16.23
2023-01-26T02:02:16.500Z,19.40
2023-01-26T02:04:45.512Z,17.97
2023-01-26T02:07:14.763Z,17.27
2023-01-26T02:10:02.112Z,19.40
2023-01-26T02:12:35.277Z,18.63
2023-01-26T02:15:05.210Z,16.53
2023-01-26T02:17:33.598Z,18.47
2023-01-26T02:20:06.896Z,18.30
2023-01-26T02:22:43.877Z,17.63
2023-01-26T02:25:25.500Z,16.40
2023-01-26T02:27:55.393Z,15.73
2023-01-26T02:30:26.541Z,16.00
2023-01-26T02:32:56.223Z,19.17
2023-01-26T02:35:24.660Z,17.67
2023-01-26T02:37:53.053Z,17.03
2023-01-26T02:40:31.349Z,19.10
2023-01-26T02:43:00.275Z,17.57
2023-01-26T02:45:31.109Z,19.33
2023-01-26T02:48:02.656Z,16.93
2023-01-26T02:50:30.298Z,17.87
2023-01-26T02:52:58.784Z,20.80
2023-01-26T02:55:26.574Z,21.30
2023-01-26T02:57:56.582Z,18.80
2023-01-26T03:00:29.872Z,18.10
2023-01-26T03:03:01.907Z,18.17
2023-01-26T03:05:32.238Z,18.37
2023-01-26T03:08:01.208Z,18.10
2023-01-26T03:10:37.517Z,21.03
2023-01-26T03:13:07.749Z,17.87
2023-01-26T03:15:52.932Z,20.43
2023-01-26T03:18:42.350Z,17.23
2023-01-26T03:21:32.385Z,20.40
2023-01-26T03:24:18.500Z,20.30
2023-01-26T03:27:04.664Z,18.97
2023-01-26T03:29:34.542Z,22.27
2023-01-26T03:32:05.234Z,20.60
2023-01-26T03:34:34.516Z,20.90
2023-01-26T03:37:04.263Z,19.50
2023-01-26T03:40:01.134Z,20.27
2023-01-26T03:42:47.380Z,20.10
2023-01-26T03:45:33.773Z,18.63
2023-01-26T03:48:26.827Z,18.07
2023-01-26T03:51:13.147Z,18.67
2023-01-26T03:53:59.261Z,17.27
2023-01-26T03:56:32.384Z,16.80
2023-01-26T03:59:09.380Z,17.73
2023-01-26T04:01:42.170Z,19.73
2023-01-26T04:04:30.159Z,17.13
2023-01-26T04:07:15.702Z,16.57
2023-01-26T04:09:51.325Z,16.73
2023-01-26T04:12:20.794Z,16.27
2023-01-26T04:15:22.525Z,17.87
2023-01-26T04:18:08.664Z,16.03
2023-01-26T04:20:56.305Z,15.53
2023-01-26T04:23:24.779Z,15.43
2023-01-26T04:25:53.543Z,16.97
2023-01-26T04:28:21.975Z,15.07
2023-01-26T04:30:50.487Z,13.63
2023-01-26T04:33:19.146Z,14.00
2023-01-26T04:35:48.956Z,14.43
2023-01-26T04:38:18.395Z,15.23
2023-01-26T04:40:46.704Z,16.50
2023-01-26T04:43:15.338Z,14.87
2023-01-26T04:45:44.319Z,14.67
2023-01-26T04:48:12.638Z,15.23
2023-01-26T04:50:41.074Z,14.63
2023-01-26T04:53:11.263Z,15.20
2023-01-26T04:55:39.636Z,15.57
2023-01-26T04:58:08.164Z,15.67
2023-01-26T05:00:36.665Z,17.43
2023-01-26T05:03:05.968Z,15.63
2023-01-26T05:05:38.117Z,15.63
2023-01-26T05:08:07.305Z,16.70
2023-01-26T05:10:37.774Z,19.20
2023-01-26T05:13:26.347Z,15.40
2023-01-26T05:16:14.044Z,16.07
2023-01-26T05:19:15.206Z,17.87
2023-01-26T05:22:06.596Z,17.10
2023-01-26T05:24:38.612Z,17.73
2023-01-26T05:27:23.964Z,16.80
2023-01-26T05:30:02.140Z,18.40
2023-01-26T05:32:33.472Z,17.90
2023-01-26T05:35:02.741Z,18.17
2023-01-26T05:37:33.345Z,15.77
2023-01-26T05:40:02.895Z,18.63
2023-01-26T05:42:32.764Z,16.93
2023-01-26T05:45:19.749Z,16.63
2023-01-26T05:47:49.724Z,20.20
2023-01-26T05:50:18.703Z,21.03
2023-01-26T05:53:07.367Z,18.27
2023-01-26T05:55:38.128Z,20.10
2023-01-26T05:58:08.389Z,19.20
2023-01-26T06:00:36.775Z,21.90
2023-01-26T06:03:10.854Z,20.07
2023-01-26T06:05:39.953Z,22.53
2023-01-26T06:08:22.608Z,20.73
2023-01-26T06:11:08.197Z,23.00
2023-01-26T06:14:13.265Z,25.50
2023-01-26T06:16:41.750Z,25.77
2023-01-26T06:19:12.131Z,22.10
2023-01-26T06:21:41.608Z,19.40
2023-01-26T06:24:10.092Z,23.03
2023-01-26T06:26:39.375Z,20.67
2023-01-26T06:29:09.059Z,23.90
2023-01-26T06:31:39.836Z,21.37
2023-01-26T06:34:08.992Z,20.10
2023-01-26T06:36:41.707Z,19.43
2023-01-26T06:39:17.027Z,19.07
2023-01-26T06:41:47.124Z,22.13
2023-01-26T06:44:15.472Z,22.40
2023-01-26T06:46:45.303Z,20.80
2023-01-26T06:49:13.786Z,21.67
2023-01-26T06:51:58.394Z,24.30
2023-01-26T06:54:50.474Z,22.70
2023-01-26T06:57:39.114Z,22.57
2023-01-26T07:00:30.662Z,23.57
2023-01-26T07:03:27.653Z,20.87
2023-01-26T07:05:56.073Z,22.43
2023-01-26T07:08:24.634Z,25.80
2023-01-26T07:10:53.000Z,24.67
2023-01-26T07:13:21.513Z,26.20
2023-01-26T07:15:50.085Z,24.60
2023-01-26T07:18:18.577Z,21.57
2023-01-26T07:20:48.239Z,23.50
2023-01-26T07:23:16.561Z,22.20
2023-01-26T07:25:45.303Z,22.43
2023-01-26T07:28:13.728Z,24.80
2023-01-26T07:30:42.102Z,24.23
2023-01-26T07:33:10.442Z,23.00
2023-01-26T07:35:38.805Z,23.23
2023-01-26T07:38:08.892Z,23.67
2023-01-26T07:40:37.265Z,24.37
2023-01-26T07:43:05.632Z,24.17
2023-01-26T07:45:51.551Z,27.30
2023-01-26T07:48:20.762Z,25.80
2023-01-26T07:50:49.561Z,24.17
2023-01-26T07:53:21.338Z,23.00
2023-01-26T07:55:50.420Z,25.13
2023-01-26T07:58:19.104Z,26.97
2023-01-26T08:00:47.943Z,25.27
2023-01-26T08:03:16.614Z,24.87
2023-01-26T08:05:45.051Z,23.70
2023-01-26T08:08:13.496Z,22.23
2023-01-26T08:10:43.175Z,26.53
2023-01-26T08:13:12.700Z,21.73
2023-01-26T08:15:41.087Z,23.00
2023-01-26T08:18:09.494Z,22.07
2023-01-26T08:20:38.376Z,21.70
2023-01-26T08:23:06.744Z,20.20
2023-01-26T08:25:35.176Z,20.67
2023-01-26T08:28:04.824Z,22.33
2023-01-26T08:30:33.638Z,20.70
2023-01-26T08:33:01.995Z,24.23
2023-01-26T08:35:32.111Z,24.97
2023-01-26T08:38:00.962Z,22.30
2023-01-26T08:40:29.397Z,22.33
2023-01-26T08:43:00.511Z,20.40
2023-01-26T08:45:34.319Z,20.33
2023-01-26T08:48:02.724Z,22.23
2023-01-26T08:50:30.995Z,19.93
2023-01-26T08:52:59.424Z,21.43
2023-01-26T08:55:28.644Z,22.23
2023-01-26T08:57:57.766Z,21.67
2023-01-26T09:00:26.440Z,22.27
2023-01-26T09:03:01.752Z,20.70
2023-01-26T09:05:34.067Z,20.67
2023-01-26T09:08:02.498Z,20.73
2023-01-26T09:10:30.912Z,21.97
2023-01-26T09:13:00.122Z,20.13
2023-01-26T09:15:28.796Z,20.63
2023-01-26T09:17:59.165Z,20.00
2023-01-26T09:20:30.189Z,22.03
2023-01-26T09:22:58.702Z,21.50
2023-01-26T09:25:27.119Z,22.53
2023-01-26T09:27:55.532Z,20.77
2023-01-26T09:30:25.076Z,19.63
2023-01-26T09:32:53.643Z,22.13
2023-01-26T09:35:22.014Z,20.57
2023-01-26T09:37:51.688Z,21.27
2023-01-26T09:40:25.223Z,20.17
2023-01-26T09:43:06.466Z,21.13
2023-01-26T09:45:42.704Z,21.37
2023-01-26T09:48:25.431Z,22.13
2023-01-26T09:51:01.668Z,21.87
2023-01-26T09:53:41.194Z,22.37
2023-01-26T09:56:18.254Z,24.67
2023-01-26T09:58:53.580Z,24.07
2023-01-26T10:01:29.937Z,30.47
2023-01-26T10:04:06.562Z,33.43
2023-01-26T10:06:37.472Z,28.03
2023-01-26T10:09:19.915Z,26.97
2023-01-26T10:11:52.331Z,23.57
2023-01-26T10:14:34.719Z,21.87
2023-01-26T10:17:06.277Z,24.07
2023-01-26T10:19:40.215Z,25.13
2023-01-26T10:22:15.388Z,21.40
2023-01-26T10:24:48.377Z,20.67
2023-01-26T10:27:16.767Z,20.77
2023-01-26T10:29:45.213Z,20.80
2023-01-26T10:32:16.161Z,20.53
2023-01-26T10:34:46.518Z,20.20
2023-01-26T10:37:22.678Z,17.00
2023-01-26T10:40:01.499Z,19.10
2023-01-26T10:42:32.730Z,18.47
2023-01-26T10:45:03.486Z,18.67
2023-01-26T10:47:32.009Z,16.93
2023-01-26T10:50:21.461Z,17.43
2023-01-26T10:53:00.762Z,18.23
2023-01-26T10:55:33.138Z,18.30
2023-01-26T10:58:02.693Z,20.37
2023-01-26T11:00:33.415Z,20.93
2023-01-26T11:03:19.221Z,18.53
2023-01-26T11:06:06.147Z,18.83
2023-01-26T11:08:36.518Z,16.33
2023-01-26T11:11:10.526Z,17.63
2023-01-26T11:13:39.022Z,16.87
2023-01-26T11:16:15.487Z,16.70
2023-01-26T11:18:52.737Z,18.83
2023-01-26T11:21:25.223Z,18.23
2023-01-26T11:24:01.640Z,20.13
2023-01-26T11:26:57.225Z,20.63
2023-01-26T11:29:54.442Z,19.33
2023-01-26T11:32:31.471Z,19.07
2023-01-26T11:35:11.419Z,17.50
2023-01-26T11:37:47.405Z,17.27
2023-01-26T11:40:32.023Z,15.73
2023-01-26T11:43:19.372Z,18.47
2023-01-26T11:46:12.526Z,17.50
2023-01-26T11:48:49.897Z,16.40
2023-01-26T11:51:28.813Z,16.07
2023-01-26T11:54:20.890Z,16.40
2023-01-26T11:56:56.623Z,17.50
2023-01-26T11:59:31.303Z,18.47
2023-01-26T12:02:05.122Z,16.23
2023-01-26T12:04:45.539Z,15.60
2023-01-26T12:07:19.307Z,14.33
2023-01-26T12:09:49.488Z,16.07
2023-01-26T12:12:25.568Z,15.40
2023-01-26T12:15:02.847Z,14.90
2023-01-26T12:17:40.237Z,15.37
2023-01-26T12:20:29.962Z,13.80
2023-01-26T12:23:04.719Z,15.30
2023-01-26T12:25:36.335Z,17.13
2023-01-26T12:28:18.029Z,21.60
2023-01-26T12:30:55.306Z,20.20
2023-01-26T12:33:23.954Z,19.77
2023-01-26T12:36:12.810Z,22.23
2023-01-26T12:38:51.156Z,20.73
2023-01-26T12:41:28.866Z,19.27
2023-01-26T12:44:08.299Z,20.67
2023-01-26T12:46:43.675Z,19.90
2023-01-26T12:49:20.002Z,18.20
2023-01-26T12:51:53.075Z,18.93
2023-01-26T12:54:30.101Z,18.50
2023-01-26T12:57:01.330Z,17.57
2023-01-26T12:59:46.411Z,17.93
2023-01-26T13:02:38.171Z,18.90
2023-01-26T13:05:08.025Z,17.33
2023-01-26T13:07:38.432Z,17.17
2023-01-26T13:10:28.838Z,17.83
2023-01-26T13:13:00.765Z,17.07
2023-01-26T13:15:31.399Z,16.57
2023-01-26T13:18:03.734Z,18.60
2023-01-26T13:20:52.720Z,19.53
2023-01-26T13:23:44.836Z,19.27
2023-01-26T13:26:26.904Z,19.03
2023-01-26T13:29:33.084Z,21.53
2023-01-26T13:32:04.027Z,17.83
2023-01-26T13:34:40.625Z,17.67
2023-01-26T13:37:13.893Z,17.80
2023-01-26T13:39:47.274Z,18.40
2023-01-26T13:42:21.441Z,17.90
2023-01-26T13:44:54.784Z,16.70
2023-01-26T13:47:29.462Z,17.37
2023-01-26T13:49:59.299Z,15.57
2023-01-26T13:52:29.545Z,15.30
2023-01-26T13:54:59.002Z,16.30
2023-01-26T13:57:29.395Z,15.10
2023-01-26T14:00:00.563Z,16.23
2023-01-26T14:02:34.690Z,15.37
2023-01-26T14:05:04.812Z,16.70
2023-01-26T14:07:37.142Z,15.50
2023-01-26T14:10:07.531Z,16.23
2023-01-26T14:12:41.959Z,14.17
2023-01-26T14:15:23.685Z,14.57
2023-01-26T14:17:57.605Z,14.50
2023-01-26T14:20:30.306Z,14.20
2023-01-26T14:23:14.126Z,12.80
2023-01-26T14:25:46.526Z,12.20
2023-01-26T14:28:17.475Z,11.63
2023-01-26T14:30:52.356Z,12.33
2023-01-26T14:33:21.404Z,12.20
2023-01-26T14:35:59.481Z,14.00
2023-01-26T14:38:29.945Z,12.43
2023-01-26T14:41:00.792Z,12.93
2023-01-26T14:43:29.521Z,13.67
2023-01-26T14:46:02.472Z,13.93
2023-01-26T14:48:34.932Z,13.93
2023-01-26T14:51:08.285Z,15.27
2023-01-26T14:53:36.746Z,14.10
2023-01-26T14:56:05.361Z,14.80
2023-01-26T14:58:34.746Z,15.27
2023-01-26T15:01:04.897Z,12.30
2023-01-26T15:03:36.531Z,13.77
2023-01-26T15:06:17.714Z,12.97
2023-01-26T15:08:59.621Z,13.80
2023-01-26T15:11:51.075Z,15.90
2023-01-26T15:14:39.098Z,14.13
2023-01-26T15:17:07.664Z,15.03
2023-01-26T15:19:42.711Z,14.63
2023-01-26T15:22:23.040Z,12.43
2023-01-26T15:25:05.863Z,12.67
2023-01-26T15:27:38.067Z,13.03
2023-01-26T15:30:08.106Z,13.23
2023-01-26T15:32:41.738Z,13.23
2023-01-26T15:35:22.013Z,16.67
2023-01-26T15:38:00.786Z,14.60
2023-01-26T15:40:29.373Z,16.13
2023-01-26T15:43:12.593Z,16.43
2023-01-26T15:45:43.542Z,23.90
2023-01-26T15:48:11.982Z,18.13
2023-01-26T15:50:40.344Z,16.67
2023-01-26T15:53:14.595Z,17.03
2023-01-26T15:55:45.292Z,15.83
2023-01-26T15:58:13.934Z,14.83
2023-01-26T16:00:42.357Z,14.60
2023-01-26T16:03:15.105Z,14.20
2023-01-26T16:05:44.124Z,13.50
2023-01-26T16:08:13.878Z,13.50
2023-01-26T16:10:42.988Z,17.03
2023-01-26T16:13:12.690Z,15.87
2023-01-26T16:15:44.549Z,14.20
2023-01-26T16:18:13.443Z,14.27
2023-01-26T16:20:44.094Z,15.00
2023-01-26T16:23:20.124Z,14.60
2023-01-26T16:25:49.272Z,14.43
2023-01-26T16:28:18.101Z,13.07
2023-01-26T16:30:48.213Z,12.43
2023-01-26T16:33:21.011Z,12.43
2023-01-26T16:35:49.563Z,11.83
2023-01-26T16:38:19.252Z,11.87
2023-01-26T16:40:49.821Z,12.77
2023-01-26T16:43:23.663Z,14.40
2023-01-26T16:45:52.738Z,15.13
2023-01-26T16:48:22.403Z,12.50
2023-01-26T16:50:53.729Z,13.17
2023-01-26T16:53:27.973Z,11.33
2023-01-26T16:55:56.815Z,13.47
2023-01-26T16:58:26.736Z,11.50
2023-01-26T17:00:55.784Z,12.73
2023-01-26T17:03:25.028Z,13.50
2023-01-26T17:05:53.492Z,12.60
2023-01-26T17:08:23.315Z,12.70
2023-01-26T17:11:01.991Z,12.70
2023-01-26T17:13:31.423Z,12.03
2023-01-26T17:16:00.331Z,14.70
2023-01-26T17:18:28.884Z,12.83
2023-01-26T17:21:03.793Z,16.70
2023-01-26T17:23:33.657Z,12.87
2023-01-26T17:26:02.299Z,16.27
2023-01-26T17:28:30.961Z,13.73
2023-01-26T17:31:01.231Z,12.40
2023-01-26T17:33:30.297Z,12.57
2023-01-26T17:36:02.078Z,12.20
2023-01-26T17:38:30.605Z,12.03
2023-01-26T17:41:00.970Z,12.97
2023-01-26T17:43:29.668Z,15.63
2023-01-26T17:46:05.600Z,15.50
2023-01-26T17:48:34.902Z,14.93
2023-01-26T17:51:06.629Z,12.80
2023-01-26T17:53:38.343Z,14.20
2023-01-26T17:56:09.426Z,12.30
2023-01-26T17:58:38.527Z,12.73
2023-01-26T18:01:08.332Z,11.50
2023-01-26T18:03:41.218Z,12.03
2023-01-26T18:06:09.802Z,12.43
2023-01-26T18:08:38.852Z,11.47
2023-01-26T18:11:10.917Z,12.07
2023-01-26T18:13:39.546Z,11.10
2023-01-26T18:16:09.884Z,11.13
2023-01-26T18:18:38.281Z,11.03
2023-01-26T18:21:15.055Z,11.20
2023-01-26T18:23:46.088Z,13.20
2023-01-26T18:26:16.738Z,12.27
2023-01-26T18:28:45.943Z,11.63
2023-01-26T18:31:16.923Z,11.87
2023-01-26T18:33:46.063Z,12.03
2023-01-26T18:36:16.794Z,10.67
2023-01-26T18:38:49.747Z,12.60
2023-01-26T18:41:20.568Z,11.43
2023-01-26T18:43:52.030Z,12.20
2023-01-26T18:46:20.882Z,11.97
2023-01-26T18:48:49.563Z,11.60
2023-01-26T18:51:19.275Z,11.30
2023-01-26T18:53:47.693Z,11.43
2023-01-26T18:56:17.779Z,13.63
2023-01-26T18:58:47.494Z,12.67
2023-01-26T19:01:18.842Z,12.53
2023-01-26T19:03:47.858Z,12.13
2023-01-26T19:06:19.882Z,11.77
2023-01-26T19:08:49.125Z,11.33
2023-01-26T19:11:17.504Z,11.43
2023-01-26T19:13:48.919Z,11.73
2023-01-26T19:16:17.431Z,10.90
2023-01-26T19:18:45.824Z,12.00
2023-01-26T19:21:14.364Z,10.97
2023-01-26T19:23:42.787Z,14.53
2023-01-26T19:26:12.629Z,12.40
2023-01-26T19:28:42.302Z,11.90
2023-01-26T19:31:12.374Z,11.70
2023-01-26T19:33:41.167Z,10.47
2023-01-26T19:36:10.279Z,13.07
2023-01-26T19:38:40.587Z,14.07
2023-01-26T19:41:09.018Z,14.67
2023-01-26T19:43:37.482Z,13.00
2023-01-26T19:46:08.507Z,12.23
2023-01-26T19:48:38.345Z,12.97
2023-01-26T19:51:08.843Z,13.17
2023-01-26T19:53:38.588Z,12.90
2023-01-26T19:56:08.105Z,13.33
2023-01-26T19:58:37.087Z,12.13
2023-01-26T20:01:07.369Z,12.00
2023-01-26T20:03:37.667Z,11.93
2023-01-26T20:06:14.424Z,12.03
2023-01-26T20:08:42.793Z,13.07
2023-01-26T20:11:12.168Z,12.97
2023-01-26T20:13:40.895Z,12.90
2023-01-26T20:16:10.075Z,11.83
2023-01-26T20:18:39.979Z,16.50
2023-01-26T20:21:08.372Z,14.60
2023-01-26T20:23:39.697Z,14.20
2023-01-26T20:26:14.677Z,13.63
2023-01-26T20:28:43.192Z,15.30
2023-01-26T20:31:15.036Z,13.93
2023-01-26T20:33:47.748Z,12.87
2023-01-26T20:36:18.852Z,13.43
2023-01-26T20:38:49.634Z,11.93
2023-01-26T20:41:20.744Z,13.13
2023-01-26T20:43:59.291Z,12.37
2023-01-26T20:46:30.142Z,12.33
2023-01-26T20:49:00.632Z,12.57
2023-01-26T20:51:33.699Z,12.67
2023-01-26T20:54:02.387Z,10.83
2023-01-26T20:56:31.865Z,10.80
2023-01-26T20:59:00.277Z,11.90
2023-01-26T21:01:28.695Z,10.93
2023-01-26T21:03:57.105Z,10.40
2023-01-26T21:06:27.248Z,10.77
2023-01-26T21:08:57.700Z,10.93
2023-01-26T21:11:28.466Z,9.83
2023-01-26T21:13:57.564Z,10.30
2023-01-26T21:16:26.412Z,13.10
2023-01-26T21:18:55.145Z,11.70
2023-01-26T21:21:24.315Z,16.30
2023-01-26T21:23:54.077Z,22.30
2023-01-26T21:26:24.436Z,19.70
2023-01-26T21:28:54.460Z,17.77
2023-01-26T21:31:25.079Z,16.90
2023-01-26T21:33:54.478Z,14.37
2023-01-26T21:36:24.876Z,15.20
2023-01-26T21:38:57.164Z,14.00
2023-01-26T21:41:44.946Z,12.90
2023-01-26T21:44:15.256Z,11.97
2023-01-26T21:46:45.384Z,11.60
2023-01-26T21:49:14.574Z,11.57
2023-01-26T21:52:00.829Z,11.50
2023-01-26T21:54:31.913Z,11.53
2023-01-26T21:57:01.777Z,12.30
2023-01-26T21:59:30.432Z,14.07
2023-01-26T22:01:59.815Z,12.83
2023-01-26T22:04:30.983Z,12.23
2023-01-26T22:06:59.885Z,11.97
2023-01-26T22:09:28.401Z,12.07
2023-01-26T22:11:58.111Z,11.67
2023-01-26T22:14:26.996Z,11.50
2023-01-26T22:16:55.657Z,12.30
2023-01-26T22:19:24.036Z,12.43
2023-01-26T22:21:52.384Z,12.73
2023-01-26T22:24:21.066Z,14.27
2023-01-26T22:26:49.443Z,13.10
2023-01-26T22:29:19.220Z,14.40
2023-01-26T22:31:47.645Z,12.63
2023-01-26T22:34:16.214Z,12.30
2023-01-26T22:36:44.575Z,12.97
2023-01-26T22:39:13.362Z,11.80
2023-01-26T22:41:41.727Z,13.17
2023-01-26T22:44:10.741Z,13.67
2023-01-26T22:46:40.402Z,15.37
2023-01-26T22:49:08.813Z,14.70
2023-01-26T22:51:38.071Z,15.03
2023-01-26T22:54:07.024Z,14.17
2023-01-26T22:56:35.487Z,13.17
2023-01-26T22:59:03.895Z,13.93
2023-01-26T23:01:33.977Z,12.63
2023-01-26T23:04:03.874Z,12.47
2023-01-26T23:06:32.281Z,14.83
2023-01-26T23:09:02.308Z,13.23
2023-01-26T23:11:31.522Z,12.90
2023-01-26T23:14:00.896Z,11.90
2023-01-26T23:16:29.833Z,12.03
2023-01-26T23:18:59.486Z,13.07
2023-01-26T23:21:29.906Z,15.03
2023-01-26T23:23:58.601Z,14.63
2023-01-26T23:26:26.962Z,15.60
2023-01-26T23:28:55.357Z,14.70
2023-01-26T23:31:24.077Z,14.13
2023-01-26T23:33:52.505Z,14.77
2023-01-26T23:36:21.830Z,15.90
2023-01-26T23:38:51.601Z,14.50
2023-01-26T23:41:20.579Z,15.60
2023-01-26T23:43:48.987Z,14.87
2023-01-26T23:46:17.459Z,14.77
2023-01-26T23:48:45.850Z,14.33
2023-01-26T23:51:14.259Z,17.03
2023-01-26T23:53:42.832Z,15.53
2023-01-26T23:56:16.962Z,15.67
2023-01-26T23:58:45.915Z,15.10
